createdAt,value
2018-02-09T00:01:10.695Z,31.27
2018-02-09T00:03:38.231Z,29.83
2018-02-09T00:06:05.844Z,32.43
2018-02-09T00:08:33.396Z,29.73
2018-02-09T00:11:00.939Z,31.33
2018-02-09T00:13:28.587Z,33.37
2018-02-09T00:15:56.115Z,32.60
2018-02-09T00:18:23.674Z,27.13
2018-02-09T00:20:51.225Z,30.97
2018-02-09T00:23:18.758Z,30.57
2018-02-09T00:25:46.301Z,30.20
2018-02-09T00:28:13.824Z,34.37
2018-02-09T00:30:41.434Z,32.90
2018-02-09T00:33:08.996Z,33.53
2018-02-09T00:35:36.539Z,31.77
2018-02-09T00:38:04.133Z,32.17
2018-02-09T00:40:31.740Z,32.77
2018-02-09T00:42:59.306Z,30.77
2018-02-09T00:45:26.892Z,34.13
2018-02-09T00:47:54.453Z,30.57
2018-02-09T00:50:22.027Z,31.10
2018-02-09T00:52:49.672Z,32.57
2018-02-09T00:55:17.255Z,32.50
2018-02-09T00:57:44.815Z,31.67
2018-02-09T01:00:12.372Z,31.37
2018-02-09T01:02:39.916Z,32.97
2018-02-09T01:05:07.473Z,34.27
2018-02-09T01:07:34.992Z,32.43
2018-02-09T01:10:02.580Z,31.67
2018-02-09T01:12:30.184Z,33.50
2018-02-09T01:14:57.713Z,34.20
2018-02-09T01:17:25.333Z,31.97
2018-02-09T01:19:52.898Z,34.20
2018-02-09T01:22:20.445Z,32.50
2018-02-09T01:24:48.018Z,33.17
2018-02-09T01:27:15.590Z,31.83
2018-02-09T01:29:43.144Z,31.90
2018-02-09T01:32:10.663Z,33.40
2018-02-09T01:34:38.255Z,32.13
2018-02-09T01:37:05.804Z,34.03
2018-02-09T01:39:34.121Z,32.43
2018-02-09T01:42:01.880Z,31.97
2018-02-09T01:44:29.449Z,34.97
2018-02-09T01:46:57.000Z,33.27
2018-02-09T01:49:24.518Z,31.80
2018-02-09T01:51:52.088Z,32.27
2018-02-09T01:54:19.611Z,31.67
2018-02-09T01:56:47.227Z,33.47
2018-02-09T01:59:14.796Z,30.60
2018-02-09T02:01:42.354Z,33.13
2018-02-09T02:04:09.938Z,34.63
2018-02-09T02:06:37.485Z,34.17
2018-02-09T02:09:05.116Z,37.17
2018-02-09T02:11:33.518Z,34.90
2018-02-09T02:14:01.073Z,36.67
2018-02-09T02:16:28.803Z,35.73
2018-02-09T02:18:56.361Z,32.83
2018-02-09T02:21:23.913Z,38.30
2018-02-09T02:23:51.483Z,35.37
2018-02-09T02:26:19.059Z,36.23
2018-02-09T02:28:46.652Z,37.33
2018-02-09T02:31:14.189Z,36.87
2018-02-09T02:33:41.828Z,38.70
2018-02-09T02:36:09.398Z,36.20
2018-02-09T02:38:36.961Z,36.67
2018-02-09T02:41:04.519Z,36.57
2018-02-09T02:43:32.150Z,40.23
2018-02-09T02:45:59.709Z,38.30
2018-02-09T02:48:27.275Z,34.97
2018-02-09T02:50:54.860Z,41.07
2018-02-09T02:53:22.420Z,37.50
2018-02-09T02:55:50.008Z,33.77
2018-02-09T02:58:17.575Z,38.53
2018-02-09T03:00:45.230Z,38.23
2018-02-09T03:03:12.785Z,36.43
2018-02-09T03:05:40.368Z,35.87
2018-02-09T03:08:07.926Z,36.47
2018-02-09T03:10:35.499Z,37.63
2018-02-09T03:13:03.379Z,34.17
2018-02-09T03:15:30.909Z,34.23
2018-02-09T03:17:58.446Z,38.57
2018-02-09T03:20:26.057Z,37.33
2018-02-09T03:22:53.689Z,35.60
2018-02-09T03:25:21.240Z,34.77
2018-02-09T03:27:49.164Z,37.10
2018-02-09T03:30:16.714Z,33.27
2018-02-09T03:32:44.633Z,38.33
2018-02-09T03:35:12.216Z,35.60
2018-02-09T03:37:39.773Z,38.30
2018-02-09T03:40:07.291Z,37.23
2018-02-09T03:42:34.849Z,35.60
2018-02-09T03:45:02.469Z,39.67
2018-02-09T03:47:30.026Z,38.93
2018-02-09T03:49:57.625Z,37.70
2018-02-09T03:52:25.156Z,35.77
2018-02-09T03:54:52.694Z,34.20
2018-02-09T03:57:20.437Z,37.60
2018-02-09T03:59:48.112Z,40.60
2018-02-09T04:02:15.640Z,39.33
2018-02-09T04:04:43.210Z,39.60
2018-02-09T04:07:10.796Z,39.30
2018-02-09T04:09:38.327Z,38.17
2018-02-09T04:12:05.876Z,38.90
2018-02-09T04:14:33.456Z,41.03
2018-02-09T04:17:01.017Z,40.13
2018-02-09T04:19:28.605Z,36.17
2018-02-09T04:21:56.128Z,38.13
2018-02-09T04:24:23.683Z,40.80
2018-02-09T04:26:51.627Z,38.17
2018-02-09T04:29:19.184Z,38.07
2018-02-09T04:31:46.749Z,38.50
2018-02-09T04:34:14.315Z,39.63
2018-02-09T04:36:41.834Z,37.83
2018-02-09T04:39:09.436Z,39.90
2018-02-09T04:41:36.967Z,38.30
2018-02-09T04:44:04.777Z,37.87
2018-02-09T04:46:32.359Z,39.10
2018-02-09T04:48:59.912Z,36.97
2018-02-09T04:51:27.516Z,39.07
2018-02-09T04:53:55.082Z,38.43
2018-02-09T04:56:22.658Z,39.10
2018-02-09T04:58:50.235Z,39.73
2018-02-09T05:01:17.820Z,41.80
2018-02-09T05:03:45.366Z,40.10
2018-02-09T05:06:13.350Z,34.17
2018-02-09T05:08:40.871Z,35.80
2018-02-09T05:11:08.401Z,36.93
2018-02-09T05:13:36.221Z,36.17
2018-02-09T05:16:03.751Z,39.00
2018-02-09T05:18:31.349Z,37.57
2018-02-09T05:20:58.899Z,38.40
2018-02-09T05:23:26.468Z,38.80
2018-02-09T05:25:54.094Z,37.13
2018-02-09T05:28:21.660Z,39.17
2018-02-09T05:30:49.226Z,39.60
2018-02-09T05:33:16.820Z,36.97
2018-02-09T05:35:44.342Z,37.43
2018-02-09T05:38:11.887Z,35.03
2018-02-09T05:40:39.501Z,36.07
2018-02-09T05:43:07.052Z,39.20
2018-02-09T05:45:34.637Z,37.17
2018-02-09T05:48:02.218Z,35.63
2018-02-09T05:50:29.791Z,38.10
2018-02-09T05:52:57.402Z,35.73
2018-02-09T05:55:25.053Z,38.50
2018-02-09T05:57:52.589Z,35.30
2018-02-09T06:00:20.157Z,38.73
2018-02-09T06:02:47.724Z,36.80
2018-02-09T06:05:15.684Z,42.20
2018-02-09T06:07:43.222Z,36.27
2018-02-09T06:10:10.821Z,35.43
2018-02-09T06:12:38.402Z,33.43
2018-02-09T06:15:05.979Z,37.60
2018-02-09T06:17:33.556Z,32.60
2018-02-09T06:20:01.103Z,36.57
2018-02-09T06:22:28.684Z,36.87
2018-02-09T06:24:56.455Z,37.93
2018-02-09T06:27:24.341Z,35.67
2018-02-09T06:29:51.877Z,39.77
2018-02-09T06:32:19.396Z,32.60
2018-02-09T06:34:46.945Z,34.40
2018-02-09T06:37:14.503Z,32.97
2018-02-09T06:39:42.083Z,36.47
2018-02-09T06:42:09.631Z,37.23
2018-02-09T06:44:37.155Z,33.60
2018-02-09T06:47:04.728Z,37.30
2018-02-09T06:49:32.271Z,36.83
2018-02-09T06:51:59.800Z,32.30
2018-02-09T06:54:27.381Z,38.23
2018-02-09T06:56:54.943Z,32.27
2018-02-09T06:59:22.529Z,35.13
2018-02-09T07:01:50.146Z,33.77
2018-02-09T07:04:17.690Z,33.80
2018-02-09T07:06:45.282Z,32.10
2018-02-09T07:09:12.808Z,34.73
2018-02-09T07:11:40.841Z,34.27
2018-02-09T07:14:08.527Z,37.00
2018-02-09T07:16:36.072Z,32.87
2018-02-09T07:19:04.007Z,31.97
2018-02-09T07:21:31.527Z,28.40
2018-02-09T07:23:59.067Z,32.80
2018-02-09T07:26:26.648Z,32.90
2018-02-09T07:28:54.246Z,30.87
2018-02-09T07:31:21.790Z,32.43
2018-02-09T07:33:49.421Z,28.90
2018-02-09T07:36:16.954Z,30.00
2018-02-09T07:38:44.514Z,28.37
2018-02-09T07:41:12.142Z,30.37
2018-02-09T07:43:39.698Z,27.00
2018-02-09T07:46:07.228Z,28.50
2018-02-09T07:48:34.779Z,28.83
2018-02-09T07:51:02.329Z,26.23
2018-02-09T07:53:29.885Z,31.70
2018-02-09T07:55:57.576Z,28.03
2018-02-09T07:58:25.146Z,26.17
2018-02-09T08:00:52.743Z,29.93
2018-02-09T08:03:20.266Z,25.60
2018-02-09T08:05:47.816Z,27.70
2018-02-09T08:08:15.446Z,26.53
2018-02-09T08:10:42.989Z,27.37
2018-02-09T08:13:10.791Z,23.47
2018-02-09T08:15:38.335Z,24.70
2018-02-09T08:18:06.281Z,25.97
2018-02-09T08:20:33.808Z,24.77
2018-02-09T08:23:01.429Z,23.43
2018-02-09T08:25:28.991Z,24.77
2018-02-09T08:27:56.634Z,23.73
2018-02-09T08:30:24.205Z,23.87
2018-02-09T08:32:51.773Z,22.90
2018-02-09T08:35:19.356Z,25.80
2018-02-09T08:37:46.880Z,22.17
2018-02-09T08:40:14.597Z,22.93
2018-02-09T08:42:42.156Z,24.57
2018-02-09T08:45:09.739Z,22.40
2018-02-09T08:47:37.271Z,24.60
2018-02-09T08:50:04.870Z,24.40
2018-02-09T08:52:32.458Z,22.00
2018-02-09T08:55:00.140Z,22.57
2018-02-09T08:57:27.927Z,21.90
2018-02-09T08:59:55.494Z,21.17
2018-02-09T09:02:23.087Z,21.87
2018-02-09T09:04:50.658Z,19.50
2018-02-09T09:07:18.247Z,21.77
2018-02-09T09:09:45.820Z,21.40
2018-02-09T09:12:13.354Z,21.47
2018-02-09T09:14:41.042Z,20.10
2018-02-09T09:17:08.572Z,20.80
2018-02-09T09:19:36.147Z,21.50
2018-02-09T09:22:03.703Z,19.70
2018-02-09T09:24:31.228Z,22.53
2018-02-09T09:26:58.984Z,21.10
2018-02-09T09:29:26.532Z,21.10
2018-02-09T09:31:54.505Z,20.90
2018-02-09T09:34:22.020Z,20.50
2018-02-09T09:36:49.535Z,19.40
2018-02-09T09:39:17.104Z,20.00
2018-02-09T09:41:46.692Z,20.10
2018-02-09T09:44:14.602Z,21.40
2018-02-09T09:46:42.161Z,20.40
2018-02-09T09:49:09.719Z,19.73
2018-02-09T09:51:37.274Z,20.27
2018-02-09T09:54:04.933Z,17.43
2018-02-09T09:56:32.540Z,18.60
2018-02-09T09:59:00.098Z,21.27
2018-02-09T10:01:31.635Z,20.50
2018-02-09T10:03:59.154Z,18.70
2018-02-09T10:06:26.700Z,19.13
2018-02-09T10:08:54.304Z,18.17
2018-02-09T10:11:21.849Z,19.00
2018-02-09T10:13:49.380Z,19.43
2018-02-09T10:16:17.353Z,19.43
2018-02-09T10:18:44.895Z,19.10
2018-02-09T10:21:12.444Z,20.00
2018-02-09T10:23:40.000Z,18.70
2018-02-09T10:26:08.973Z,19.67
2018-02-09T10:28:36.551Z,20.37
2018-02-09T10:31:04.108Z,20.17
2018-02-09T10:33:32.019Z,19.67
2018-02-09T10:35:59.543Z,20.53
2018-02-09T10:38:27.070Z,16.67
2018-02-09T10:40:54.644Z,20.60
2018-02-09T10:43:22.187Z,18.50
2018-02-09T10:45:49.737Z,19.20
2018-02-09T10:48:17.289Z,19.00
2018-02-09T10:50:44.915Z,19.93
2018-02-09T10:53:12.470Z,19.00
2018-02-09T10:55:40.020Z,18.37
2018-02-09T10:58:07.585Z,18.40
2018-02-09T11:00:40.832Z,18.60
2018-02-09T11:03:08.416Z,19.63
2018-02-09T11:05:35.974Z,18.63
2018-02-09T11:08:03.520Z,19.87
2018-02-09T11:10:33.858Z,18.83
2018-02-09T11:13:07.128Z,19.07
2018-02-09T11:15:34.673Z,18.80
2018-02-09T11:18:02.246Z,18.30
2018-02-09T11:20:29.772Z,20.70
2018-02-09T11:22:57.463Z,20.77
2018-02-09T11:25:25.127Z,17.83
2018-02-09T11:27:52.763Z,17.90
2018-02-09T11:30:20.284Z,17.20
2018-02-09T11:32:47.809Z,15.30
2018-02-09T11:35:15.850Z,18.73
2018-02-09T11:37:46.178Z,17.40
2018-02-09T11:40:13.744Z,17.77
2018-02-09T11:42:41.749Z,17.80
2018-02-09T11:45:09.279Z,17.27
2018-02-09T11:47:36.885Z,17.90
2018-02-09T11:50:04.427Z,19.33
2018-02-09T11:52:31.948Z,18.93
2018-02-09T11:54:59.548Z,18.10
2018-02-09T11:57:27.092Z,20.37
2018-02-09T11:59:54.728Z,17.47
2018-02-09T12:02:22.532Z,17.80
2018-02-09T12:04:50.212Z,18.17
2018-02-09T12:07:17.741Z,18.63
2018-02-09T12:09:45.297Z,19.17
2018-02-09T12:12:12.854Z,20.50
2018-02-09T12:14:40.435Z,19.40
2018-02-09T12:17:07.961Z,21.77
2018-02-09T12:19:35.536Z,20.47
2018-02-09T12:22:03.092Z,23.27
2018-02-09T12:24:30.630Z,20.30
2018-02-09T12:26:58.901Z,23.70
2018-02-09T12:29:26.550Z,21.77
2018-02-09T12:31:54.130Z,22.43
2018-02-09T12:34:21.652Z,21.80
2018-02-09T12:36:49.267Z,22.70
2018-02-09T12:39:16.932Z,21.47
2018-02-09T12:41:44.536Z,20.67
2018-02-09T12:44:12.087Z,21.60
2018-02-09T12:46:39.622Z,21.40
2018-02-09T12:49:07.266Z,20.67
2018-02-09T12:51:34.790Z,20.70
2018-02-09T12:54:02.308Z,21.87
2018-02-09T12:56:29.862Z,23.33
2018-02-09T12:58:57.400Z,19.70
2018-02-09T13:01:25.345Z,23.43
2018-02-09T13:03:52.876Z,21.80
2018-02-09T13:06:21.452Z,22.13
2018-02-09T13:08:49.223Z,23.50
2018-02-09T13:11:17.094Z,22.50
2018-02-09T13:13:44.620Z,21.37
2018-02-09T13:16:12.183Z,24.00
2018-02-09T13:18:48.596Z,21.50
2018-02-09T13:21:16.185Z,23.87
2018-02-09T13:23:55.746Z,21.97
2018-02-09T13:26:23.353Z,24.60
2018-02-09T13:28:59.879Z,22.53
2018-02-09T13:31:27.482Z,23.27
2018-02-09T13:33:55.067Z,24.63
2018-02-09T13:39:29.550Z,21.63
2018-02-09T13:41:57.152Z,24.00
2018-02-09T13:44:24.715Z,25.13
2018-02-09T13:46:52.260Z,22.53
2018-02-09T13:49:19.876Z,34.57
2018-02-09T13:51:47.435Z,29.77
2018-02-09T13:54:15.004Z,28.97
2018-02-09T13:56:42.628Z,25.93
2018-02-09T13:59:10.295Z,26.40
2018-02-09T14:01:37.837Z,36.37
2018-02-09T14:04:05.382Z,28.30
2018-02-09T14:06:32.988Z,32.90
2018-02-09T14:09:00.861Z,33.07
2018-02-09T14:11:28.416Z,28.17
2018-02-09T14:13:56.008Z,35.33
2018-02-09T14:16:23.915Z,29.43
2018-02-09T14:18:51.450Z,29.93
2018-02-09T14:21:19.006Z,28.60
2018-02-09T14:23:46.620Z,30.40
2018-02-09T14:26:14.157Z,30.17
2018-02-09T14:28:41.708Z,35.43
2018-02-09T14:31:09.245Z,27.40
2018-02-09T14:33:36.801Z,26.53
2018-02-09T14:36:04.392Z,30.60
2018-02-09T14:38:31.988Z,28.40
2018-02-09T14:40:59.593Z,28.33
2018-02-09T14:43:27.177Z,29.60
2018-02-09T14:45:54.753Z,25.57
2018-02-09T14:48:22.376Z,28.80
2018-02-09T14:50:49.929Z,28.90
2018-02-09T14:53:17.452Z,29.77
2018-02-09T14:55:45.387Z,32.73
2018-02-09T14:58:13.031Z,28.40
2018-02-09T15:00:40.575Z,26.93
2018-02-09T15:03:08.254Z,144.97
2018-02-09T15:05:35.797Z,34.83
2018-02-09T15:08:03.324Z,47.03
2018-02-09T15:10:30.900Z,35.30
2018-02-09T15:12:58.433Z,46.93
2018-02-09T15:15:26.012Z,54.40
2018-02-09T15:17:53.705Z,31.50
2018-02-09T15:20:21.268Z,31.70
2018-02-09T15:22:48.812Z,29.57
2018-02-09T15:25:16.392Z,30.43
2018-02-09T15:27:43.950Z,33.97
2018-02-09T15:30:11.500Z,34.60
2018-02-09T15:32:39.118Z,32.20
2018-02-09T15:35:07.096Z,31.97
2018-02-09T15:37:34.796Z,33.57
2018-02-09T15:40:02.522Z,33.07
2018-02-09T15:42:30.092Z,32.40
2018-02-09T15:44:57.665Z,32.37
2018-02-09T15:47:25.212Z,35.33
2018-02-09T15:49:52.739Z,36.27
2018-02-09T15:52:20.637Z,44.20
2018-02-09T15:54:48.185Z,33.60
2018-02-09T15:57:15.729Z,33.33
2018-02-09T15:59:43.295Z,39.90
2018-02-09T16:02:10.863Z,31.77
2018-02-09T16:04:38.416Z,35.13
2018-02-09T16:07:05.959Z,34.60
2018-02-09T16:09:33.501Z,31.63
2018-02-09T16:12:01.106Z,30.90
2018-02-09T16:14:28.652Z,33.40
2018-02-09T16:16:56.197Z,35.97
2018-02-09T16:19:23.757Z,37.33
2018-02-09T16:21:51.290Z,39.90
2018-02-09T16:24:18.837Z,44.37
2018-02-09T16:26:46.374Z,36.53
2018-02-09T16:29:14.165Z,36.80
2018-02-09T16:31:41.732Z,38.97
2018-02-09T16:34:10.985Z,38.20
2018-02-09T16:36:38.955Z,37.20
2018-02-09T16:39:06.513Z,36.90
2018-02-09T16:41:34.051Z,38.60
2018-02-09T16:44:01.656Z,40.87
2018-02-09T16:46:29.245Z,36.97
2018-02-09T16:48:56.795Z,39.77
2018-02-09T16:51:24.376Z,36.93
2018-02-09T16:53:51.937Z,41.03
2018-02-09T16:56:19.540Z,38.20
2018-02-09T16:58:47.181Z,40.67
2018-02-09T17:01:14.759Z,38.07
2018-02-09T17:03:43.014Z,40.47
2018-02-09T17:06:10.547Z,39.83
2018-02-09T17:08:38.088Z,39.50
2018-02-09T17:11:05.843Z,38.30
2018-02-09T17:13:33.342Z,39.70
2018-02-09T17:16:00.915Z,39.20
2018-02-09T17:18:28.525Z,36.60
2018-02-09T17:20:56.087Z,38.50
2018-02-09T17:23:23.675Z,43.67
2018-02-09T17:25:51.292Z,39.83
2018-02-09T17:28:19.088Z,38.43
2018-02-09T17:30:47.053Z,42.37
2018-02-09T17:33:15.300Z,41.00
2018-02-09T17:35:42.823Z,41.63
2018-02-09T17:38:10.341Z,40.70
2018-02-09T17:40:38.292Z,40.77
2018-02-09T17:43:06.227Z,39.37
2018-02-09T17:45:33.791Z,42.40
2018-02-09T17:48:01.780Z,47.30
2018-02-09T17:50:29.362Z,41.80
2018-02-09T17:52:57.056Z,39.20
2018-02-09T17:55:24.979Z,41.93
2018-02-09T17:57:52.624Z,43.03
2018-02-09T18:00:20.218Z,39.27
2018-02-09T18:02:47.828Z,41.93
2018-02-09T18:05:15.360Z,40.90
2018-02-09T18:07:42.970Z,43.97
2018-02-09T18:10:10.589Z,41.70
2018-02-09T18:12:38.502Z,39.43
2018-02-09T18:15:06.132Z,38.30
2018-02-09T18:17:33.662Z,41.30
2018-02-09T18:20:01.227Z,40.27
2018-02-09T18:22:28.770Z,40.07
2018-02-09T18:24:56.357Z,41.60
2018-02-09T18:27:23.899Z,40.40
2018-02-09T18:29:51.828Z,40.53
2018-02-09T18:32:19.369Z,41.20
2018-02-09T18:34:46.909Z,38.60
2018-02-09T18:37:14.476Z,94.77
2018-02-09T18:39:42.164Z,79.53
2018-02-09T18:42:09.726Z,85.00
2018-02-09T18:44:37.300Z,54.60
2018-02-09T18:47:04.874Z,155.23
2018-02-09T18:49:32.412Z,73.43
2018-02-09T18:51:59.990Z,92.07
2018-02-09T18:54:27.616Z,81.20
2018-02-09T18:56:55.168Z,50.40
2018-02-09T18:59:22.705Z,51.63
2018-02-09T19:01:50.308Z,50.27
2018-02-09T19:04:17.891Z,47.53
2018-02-09T19:06:45.587Z,76.60
2018-02-09T19:09:13.108Z,42.87
2018-02-09T19:11:40.702Z,45.83
2018-02-09T19:14:08.295Z,44.33
2018-02-09T19:16:35.976Z,44.30
2018-02-09T19:19:03.882Z,44.23
2018-02-09T19:21:31.398Z,47.20
2018-02-09T19:23:58.951Z,40.63
2018-02-09T19:26:26.503Z,40.23
2018-02-09T19:28:54.025Z,42.30
2018-02-09T19:31:21.611Z,44.07
2018-02-09T19:33:49.145Z,41.70
2018-02-09T19:36:16.699Z,46.50
2018-02-09T19:38:44.288Z,45.97
2018-02-09T19:41:11.827Z,43.47
2018-02-09T19:43:39.753Z,40.90
2018-02-09T19:46:07.277Z,39.10
2018-02-09T19:48:34.854Z,38.87
2018-02-09T19:51:02.459Z,41.60
2018-02-09T19:53:30.066Z,36.70
2018-02-09T19:55:57.622Z,37.47
2018-02-09T19:58:25.451Z,36.20
2018-02-09T20:00:53.117Z,37.07
2018-02-09T20:03:20.937Z,39.50
2018-02-09T20:05:48.773Z,34.33
2018-02-09T20:08:16.551Z,36.43
2018-02-09T20:10:44.229Z,35.73
2018-02-09T20:13:11.829Z,35.30
2018-02-09T20:15:39.581Z,32.27
2018-02-09T20:18:07.163Z,31.97
2018-02-09T20:20:34.789Z,33.60
2018-02-09T20:23:01.785Z,30.50
2018-02-09T20:25:29.460Z,32.77
2018-02-09T20:27:57.091Z,30.67
2018-02-09T20:30:24.912Z,31.60
2018-02-09T20:32:52.523Z,27.80
2018-02-09T20:35:20.164Z,30.70
2018-02-09T20:37:47.736Z,29.23
2018-02-09T20:40:15.288Z,30.23
2018-02-09T20:42:42.905Z,31.80
2018-02-09T20:45:10.427Z,28.30
2018-02-09T20:47:37.955Z,30.60
2018-02-09T20:50:05.536Z,29.97
2018-02-09T20:52:33.105Z,29.10
2018-02-09T20:55:00.656Z,28.10
2018-02-09T20:57:28.334Z,28.50
2018-02-09T20:59:55.995Z,30.53
2018-02-09T21:02:24.027Z,30.23
2018-02-09T21:04:51.643Z,28.80
2018-02-09T21:07:19.230Z,29.93
2018-02-09T21:09:46.848Z,29.87
2018-02-09T21:12:14.387Z,32.57
2018-02-09T21:14:42.399Z,31.47
2018-02-09T21:17:09.947Z,29.10
2018-02-09T21:19:37.530Z,29.80
2018-02-09T21:22:05.088Z,28.87
2018-02-09T21:24:32.655Z,31.17
2018-02-09T21:27:00.577Z,28.83
2018-02-09T21:29:28.096Z,25.53
2018-02-09T21:31:55.660Z,30.47
2018-02-09T21:34:23.203Z,27.73
2018-02-09T21:36:50.812Z,33.70
2018-02-09T21:39:18.339Z,30.37
2018-02-09T21:41:46.175Z,29.23
2018-02-09T21:44:13.744Z,31.07
2018-02-09T21:46:41.527Z,29.40
2018-02-09T21:49:09.136Z,27.00
2018-02-09T21:51:36.781Z,27.40
2018-02-09T21:54:04.447Z,28.33
2018-02-09T21:56:31.979Z,26.00
2018-02-09T21:58:59.497Z,24.60
2018-02-09T22:01:27.085Z,25.90
2018-02-09T22:03:54.607Z,25.67
2018-02-09T22:06:22.251Z,25.90
2018-02-09T22:08:49.852Z,24.60
2018-02-09T22:11:17.418Z,27.47
2018-02-09T22:13:44.935Z,29.10
2018-02-09T22:16:12.503Z,28.23
2018-02-09T22:18:40.177Z,26.77
2018-02-09T22:21:07.719Z,26.30
2018-02-09T22:23:35.263Z,28.57
2018-02-09T22:26:02.818Z,27.90
2018-02-09T22:28:30.396Z,29.73
2018-02-09T22:30:57.940Z,31.23
2018-02-09T22:33:25.524Z,30.23
2018-02-09T22:35:53.072Z,32.40
2018-02-09T22:38:20.652Z,29.57
2018-02-09T22:40:48.205Z,31.37
2018-02-09T22:43:15.828Z,32.53
2018-02-09T22:45:43.372Z,31.40
2018-02-09T22:48:10.900Z,31.70
2018-02-09T22:50:38.475Z,32.90
2018-02-09T22:53:06.032Z,33.40
2018-02-09T22:55:33.634Z,34.13
2018-02-09T22:58:01.178Z,36.07
2018-02-09T23:00:28.744Z,34.63
2018-02-09T23:02:56.362Z,34.27
2018-02-09T23:05:23.878Z,34.17
2018-02-09T23:07:51.452Z,41.03
2018-02-09T23:10:19.002Z,40.47
2018-02-09T23:12:46.907Z,48.37
2018-02-09T23:15:14.459Z,35.37
2018-02-09T23:17:42.016Z,59.73
2018-02-09T23:20:09.702Z,35.53
2018-02-09T23:22:37.231Z,37.23
2018-02-09T23:25:04.778Z,70.27
2018-02-09T23:27:32.335Z,39.57
2018-02-09T23:29:59.880Z,45.37
2018-02-09T23:32:27.475Z,39.07
2018-02-09T23:34:55.023Z,35.57
2018-02-09T23:37:22.603Z,56.27
2018-02-09T23:39:50.155Z,55.83
2018-02-09T23:42:17.768Z,51.07
2018-02-09T23:44:45.278Z,44.87
2018-02-09T23:47:12.808Z,53.80
2018-02-09T23:49:40.481Z,47.97
2018-02-09T23:52:08.088Z,66.33
2018-02-09T23:54:35.640Z,68.93
2018-02-09T23:57:03.191Z,51.67
2018-02-09T23:59:30.819Z,52.33
